Time;durP1;ratioP1;P1;durP2;ratioP2;P2;SDS_P1;SDS_P2;PMS_P1;PMS_P2;Temp;Humidity;BMP_temperature;BMP_pressure;BME280_temperature;BME280_humidity;BME280_pressure;Samples;Min_cycle;Max_cycle;Signal;HPM_P1;HPM_P2
2022/05/06 00:00:29;;;;;;;;;;;;;;;17.30;62.09;102300.84;1033874;28;823;-67
2022/05/06 00:01:20;;;;;;;;;;;;;;;17.31;62.41;102312.47;1033816;28;649;-67
2022/05/06 00:02:10;;;;;;;;;;;;;;;17.30;62.34;102313.44;1033310;28;686;-66
2022/05/06 00:03:00;;;;;;;;;;;;;;;17.29;61.94;102314.41;1033755;28;660;-66
2022/05/06 00:03:51;;;;;;;;;;;;;;;17.29;62.40;102309.03;1033778;28;870;-65
2022/05/06 00:04:43;;;;;;;;;;;;;;;17.27;62.25;102306.44;1033846;28;643;-66
2022/05/06 00:05:33;;;;;;;;;;;;;;;17.28;62.35;102310.00;1033772;28;635;-66
2022/05/06 00:06:24;;;;;;;;;;;;;;;17.27;62.45;102313.66;1033734;28;740;-65
2022/05/06 00:07:14;;;;;;;;;;;;;;;17.27;62.00;102311.84;1033144;28;1902;-65
2022/05/06 00:08:05;;;;;;;;;;;;;;;17.28;62.39;102302.78;1033807;28;674;-66
2022/05/06 00:08:55;;;;;;;;;;;;;;;17.28;62.27;102312.69;1033741;28;654;-65
2022/05/06 00:09:46;;;;;;;;;;;;;;;17.27;62.17;102317.22;1033790;28;693;-65
2022/05/06 00:10:36;;;;;;;;;;;;;;;17.27;62.40;102316.34;1033760;28;654;-65
2022/05/06 00:11:27;;;;;;;;;;;;;;;17.27;61.91;102309.13;1033659;28;701;-65
2022/05/06 00:12:19;;;;;;;;;;;;;;;17.28;62.48;102308.16;1033798;28;733;-65
2022/05/06 00:13:09;;;;;;;;;;;;;;;17.26;62.06;102306.53;1029837;28;1590;-65
2022/05/06 00:13:59;;;;;;;;;;;;;;;17.27;62.25;102313.66;1027771;28;671;-64
2022/05/06 00:14:50;;;;;;;;;;;;;;;17.26;62.30;102306.53;1033250;28;678;-65
2022/05/06 00:15:40;;;;;;;;;;;;;;;17.27;62.19;102313.66;1033159;28;625;-65
2022/05/06 00:16:31;;;;;;;;;;;;;;;17.26;61.83;102303.84;1033152;28;733;-65
2022/05/06 00:17:21;;;;;;;;;;;;;;;17.26;62.23;102306.53;1033335;28;1234;-65
2022/05/06 00:18:12;;;;;;;;;;;;;;;17.25;62.35;102308.38;1033549;28;643;-65
2022/05/06 00:19:02;;;;;;;;;;;;;;;17.26;61.70;102302.03;1034076;28;657;-65
2022/05/06 00:19:53;;;;;;;;;;;;;;;17.25;61.84;102297.59;1035140;28;623;-66
2022/05/06 00:20:43;;;;;;;;;;;;;;;17.25;61.78;102305.69;1036654;28;698;-65
2022/05/06 00:21:33;;;;;;;;;;;;;;;17.24;62.16;102301.25;1036142;28;747;-65
2022/05/06 00:22:24;;;;;;;;;;;;;;;17.24;62.17;102303.09;1034620;28;768;-65
2022/05/06 00:23:14;;;;;;;;;;;;;;;17.22;62.28;102297.81;1034406;28;607;-65
2022/05/06 00:24:05;;;;;;;;;;;;;;;17.22;62.00;102297.81;1033655;28;651;-65
2022/05/06 00:24:56;;;;;;;;;;;;;;;17.22;62.23;102308.59;1033309;28;734;-65
2022/05/06 00:25:46;;;;;;;;;;;;;;;17.22;61.98;102307.72;1032394;28;745;-65
2022/05/06 00:26:37;;;;;;;;;;;;;;;17.22;62.16;102307.72;1033484;28;697;-66
2022/05/06 00:27:27;;;;;;;;;;;;;;;17.21;61.91;102306.00;1032699;28;1914;-65
2022/05/06 00:28:18;;;;;;;;;;;;;;;17.21;62.34;102306.00;1033150;28;702;-66
2022/05/06 00:29:09;;;;;;;;;;;;;;;17.21;62.32;102311.38;1033770;28;694;-65
2022/05/06 00:29:59;;;;;;;;;;;;;;;17.21;61.74;102314.94;1033708;28;690;-65
2022/05/06 00:30:50;;;;;;;;;;;;;;;17.20;62.49;102306.97;1033126;28;717;-65
2022/05/06 00:31:40;;;;;;;;;;;;;;;17.20;62.58;102304.28;1033086;28;1668;-65
2022/05/06 00:32:31;;;;;;;;;;;;;;;17.20;62.20;102309.66;1033092;28;654;-64
2022/05/06 00:33:24;;;;;;;;;;;;;;;17.19;62.42;102300.75;1032988;28;1653;-65
2022/05/06 00:34:14;;;;;;;;;;;;;;;17.20;62.02;102309.66;1033657;28;627;-64
2022/05/06 00:35:04;;;;;;;;;;;;;;;17.21;62.11;102308.69;1033137;28;678;-65
2022/05/06 00:35:55;;;;;;;;;;;;;;;17.19;62.24;102306.13;1032639;28;680;-64
2022/05/06 00:36:45;;;;;;;;;;;;;;;17.20;62.14;102304.28;1032280;28;671;-65
2022/05/06 00:37:36;;;;;;;;;;;;;;;17.19;62.31;102305.28;1033340;28;626;-65
2022/05/06 00:38:26;;;;;;;;;;;;;;;17.18;61.76;102307.09;1033050;28;638;-65
2022/05/06 00:39:17;;;;;;;;;;;;;;;17.18;61.80;102300.84;1033137;28;690;-65
2022/05/06 00:40:08;;;;;;;;;;;;;;;17.17;62.04;102299.13;1033108;28;666;-63
2022/05/06 00:40:58;;;;;;;;;;;;;;;17.18;62.07;102300.84;1033773;28;657;-64
2022/05/06 00:41:48;;;;;;;;;;;;;;;17.17;62.23;102301.81;1032689;28;639;-64
2022/05/06 00:42:39;;;;;;;;;;;;;;;17.16;61.89;102295.56;1033109;28;651;-64
2022/05/06 00:43:29;;;;;;;;;;;;;;;17.17;62.06;102293.72;1032470;28;647;-64
2022/05/06 00:44:20;;;;;;;;;;;;;;;17.16;62.09;102297.41;1032621;28;694;-64
2022/05/06 00:45:12;;;;;;;;;;;;;;;17.16;62.14;102302.78;1032484;28;968;-64
2022/05/06 00:46:03;;;;;;;;;;;;;;;17.14;62.23;102296.63;1032198;28;707;-64
2022/05/06 00:46:53;;;;;;;;;;;;;;;17.15;61.95;102295.66;1033336;28;683;-64
2022/05/06 00:47:44;;;;;;;;;;;;;;;17.15;61.80;102301.91;1033074;28;768;-64
2022/05/06 00:48:34;;;;;;;;;;;;;;;17.15;61.88;102298.38;1032148;28;652;-64
2022/05/06 00:49:25;;;;;;;;;;;;;;;17.14;61.74;102299.34;1033332;28;642;-65
2022/05/06 00:50:15;;;;;;;;;;;;;;;17.13;61.85;102295.78;1032610;28;667;-64
2022/05/06 00:51:06;;;;;;;;;;;;;;;17.12;62.33;102294.03;1028981;28;698;-64
2022/05/06 00:51:57;;;;;;;;;;;;;;;17.13;61.90;102293.06;1032925;28;1629;-64
2022/05/06 00:52:47;;;;;;;;;;;;;;;17.13;61.87;102294.91;1033225;28;667;-64
2022/05/06 00:53:38;;;;;;;;;;;;;;;17.13;62.46;102295.78;1032256;28;719;-64
2022/05/06 00:54:28;;;;;;;;;;;;;;;17.12;61.67;102296.75;1029980;28;662;-63
2022/05/06 00:55:19;;;;;;;;;;;;;;;17.12;62.40;102298.56;1028716;28;713;-63
2022/05/06 00:56:09;;;;;;;;;;;;;;;17.11;61.87;102296.84;1032651;28;742;-63
2022/05/06 00:56:59;;;;;;;;;;;;;;;17.11;61.91;102297.72;1032469;28;642;-64
2022/05/06 00:57:50;;;;;;;;;;;;;;;17.10;62.47;102300.50;1033151;28;728;-63
2022/05/06 00:58:40;;;;;;;;;;;;;;;17.10;61.71;102293.28;1033129;28;643;-64
2022/05/06 00:59:31;;;;;;;;;;;;;;;17.10;62.54;102298.66;1033008;28;633;-64
2022/05/06 01:00:22;;;;;;;;;;;;;;;17.10;62.49;102292.41;1033023;28;642;-63
2022/05/06 01:01:14;;;;;;;;;;;;;;;17.09;62.08;102302.34;1033603;28;657;-64
2022/05/06 01:02:04;;;;;;;;;;;;;;;17.09;62.11;102296.09;1033052;28;675;-64
2022/05/06 01:02:55;;;;;;;;;;;;;;;17.09;62.21;102302.34;1032980;28;646;-63
2022/05/06 01:03:45;;;;;;;;;;;;;;;17.10;61.73;102303.19;1032999;28;635;-64
2022/05/06 01:04:36;;;;;;;;;;;;;;;17.08;61.92;102300.59;1033176;28;623;-64
2022/05/06 01:05:26;;;;;;;;;;;;;;;17.09;62.21;102302.34;1032294;28;709;-64
2022/05/06 01:06:17;;;;;;;;;;;;;;;17.09;61.51;102306.84;1032974;28;648;-64
2022/05/06 01:07:07;;;;;;;;;;;;;;;17.08;62.23;102300.59;1032550;28;658;-64
2022/05/06 01:08:01;;;;;;;;;;;;;;;17.07;61.88;102306.09;1032246;28;674;-64
2022/05/06 01:08:51;;;;;;;;;;;;;;;17.05;62.18;102303.50;1032489;28;666;-63
2022/05/06 01:09:41;;;;;;;;;;;;;;;17.06;62.33;102304.38;1032817;28;654;-64
2022/05/06 01:10:32;;;;;;;;;;;;;;;17.05;61.67;102302.63;1033064;28;678;-63
2022/05/06 01:11:22;;;;;;;;;;;;;;;17.06;62.11;102301.69;1033096;28;682;-64
2022/05/06 01:12:13;;;;;;;;;;;;;;;17.04;62.04;102298.22;1032766;28;1638;-63
2022/05/06 01:13:04;;;;;;;;;;;;;;;17.04;62.11;102292.84;1032225;28;666;-63
2022/05/06 01:13:56;;;;;;;;;;;;;;;17.02;62.26;102291.09;1033141;28;737;-65
2022/05/06 01:14:46;;;;;;;;;;;;;;;17.02;61.83;102296.50;1033580;28;705;-63
2022/05/06 01:15:38;;;;;;;;;;;;;;;17.02;62.13;102293.81;1033132;28;642;-63
2022/05/06 01:16:28;;;;;;;;;;;;;;;17.03;61.92;102294.66;1033635;28;654;-64
2022/05/06 01:17:18;;;;;;;;;;;;;;;17.02;61.67;102291.09;1032838;28;1135;-65
2022/05/06 01:18:10;;;;;;;;;;;;;;;17.02;61.58;102291.09;1031965;28;662;-63
2022/05/06 01:19:01;;;;;;;;;;;;;;;17.01;61.47;102291.25;1033581;28;706;-64
2022/05/06 01:19:51;;;;;;;;;;;;;;;17.02;62.41;102289.41;1033064;28;690;-63
2022/05/06 01:20:42;;;;;;;;;;;;;;;17.02;62.08;102291.09;1032962;28;1539;-63
2022/05/06 01:21:34;;;;;;;;;;;;;;;17.02;61.54;102297.50;1033163;28;666;-63
2022/05/06 01:22:26;;;;;;;;;;;;;;;17.01;62.15;102291.25;1033783;28;769;-63
2022/05/06 01:23:16;;;;;;;;;;;;;;;17.00;61.89;102292.22;1033545;28;666;-63
2022/05/06 01:24:06;;;;;;;;;;;;;;;16.99;62.01;102291.34;1032158;28;707;-63
2022/05/06 01:24:57;;;;;;;;;;;;;;;16.99;61.93;102293.19;1033543;28;643;-62
2022/05/06 01:25:47;;;;;;;;;;;;;;;16.98;61.94;102289.63;1032775;28;693;-62
2022/05/06 01:26:39;;;;;;;;;;;;;;;16.98;61.80;102295.00;1032397;28;647;-62
2022/05/06 01:27:29;;;;;;;;;;;;;;;16.98;61.68;102296.84;1031826;28;1975;-63
2022/05/06 01:28:19;;;;;;;;;;;;;;;16.98;62.02;102300.41;1033139;28;670;-63
2022/05/06 01:29:10;;;;;;;;;;;;;;;16.97;62.24;102293.28;1034437;28;669;-63
2022/05/06 01:30:00;;;;;;;;;;;;;;;16.96;61.81;102294.25;1035959;28;725;-65
2022/05/06 01:30:52;;;;;;;;;;;;;;;16.95;62.21;102297.91;1037940;28;760;-65
2022/05/06 01:31:42;;;;;;;;;;;;;;;16.98;61.89;102300.41;1038006;28;840;-66
2022/05/06 01:32:32;;;;;;;;;;;;;;;16.98;61.59;102295.00;1035570;28;1509;-66
2022/05/06 01:33:23;;;;;;;;;;;;;;;16.97;62.25;102295.09;1034201;28;800;-66
2022/05/06 01:34:14;;;;;;;;;;;;;;;16.98;61.73;102297.69;1033096;28;1692;-67
2022/05/06 01:35:04;;;;;;;;;;;;;;;16.97;61.62;102298.66;1032379;28;678;-67
2022/05/06 01:35:54;;;;;;;;;;;;;;;16.97;61.59;102303.19;1034297;28;655;-66
2022/05/06 01:36:45;;;;;;;;;;;;;;;16.96;61.97;102288.00;1032834;28;658;-66
2022/05/06 01:37:35;;;;;;;;;;;;;;;16.95;61.92;102295.22;1033330;28;642;-66
2022/05/06 01:38:26;;;;;;;;;;;;;;;16.96;61.88;102296.94;1033662;28;693;-66
2022/05/06 01:39:18;;;;;;;;;;;;;;;16.96;62.15;102299.63;1032719;28;654;-66
2022/05/06 01:40:08;;;;;;;;;;;;;;;16.96;61.68;102296.06;1033169;28;638;-67
2022/05/06 01:40:59;;;;;;;;;;;;;;;16.96;61.88;102299.63;1033586;28;965;-66
2022/05/06 01:41:51;;;;;;;;;;;;;;;16.95;61.83;102295.22;1033845;28;681;-67
2022/05/06 01:42:41;;;;;;;;;;;;;;;16.96;61.85;102298.78;1034068;28;1588;-67
2022/05/06 01:43:32;;;;;;;;;;;;;;;16.95;62.12;102294.34;1032412;28;776;-66
2022/05/06 01:44:22;;;;;;;;;;;;;;;16.94;62.03;102293.47;1032282;28;1641;-66
2022/05/06 01:45:13;;;;;;;;;;;;;;;16.93;62.24;102297.16;1033243;28;598;-65
2022/05/06 01:46:04;;;;;;;;;;;;;;;16.93;61.93;102291.75;1033220;28;792;-65
2022/05/06 01:46:54;;;;;;;;;;;;;;;16.93;61.76;102290.91;1033171;28;686;-66
2022/05/06 01:47:44;;;;;;;;;;;;;;;16.91;61.87;102299.06;1033327;28;698;-66
2022/05/06 01:48:35;;;;;;;;;;;;;;;16.93;61.77;102297.16;1033174;28;690;-65
2022/05/06 01:49:26;;;;;;;;;;;;;;;16.93;61.64;102294.44;1033597;28;658;-65
2022/05/06 01:50:16;;;;;;;;;;;;;;;16.92;61.85;102295.41;1029189;28;635;-65
2022/05/06 01:51:07;;;;;;;;;;;;;;;16.93;61.88;102290.91;1029710;28;681;-65
2022/05/06 01:51:57;;;;;;;;;;;;;;;16.92;62.15;102292.72;1031900;28;678;-65
2022/05/06 01:52:48;;;;;;;;;;;;;;;16.93;62.29;102293.59;1033342;28;1641;-65
2022/05/06 01:53:38;;;;;;;;;;;;;;;16.93;61.67;102290.91;1032999;28;620;-65
2022/05/06 01:54:29;;;;;;;;;;;;;;;16.94;61.69;102293.47;1032551;28;588;-65
2022/05/06 01:55:19;;;;;;;;;;;;;;;16.93;62.18;102294.44;1032971;28;678;-66
2022/05/06 01:56:09;;;;;;;;;;;;;;;16.92;61.86;102295.41;1032936;28;615;-66
2022/05/06 01:57:00;;;;;;;;;;;;;;;16.91;61.86;102292.81;1032130;28;701;-66
2022/05/06 01:57:50;;;;;;;;;;;;;;;16.90;62.14;102291.97;1027995;28;722;-66
2022/05/06 01:58:41;;;;;;;;;;;;;;;16.91;62.19;102292.81;1028664;28;605;-66
2022/05/06 01:59:31;;;;;;;;;;;;;;;16.89;62.22;102297.44;1032926;28;697;-66
2022/05/06 02:00:22;;;;;;;;;;;;;;;16.89;61.79;102297.44;1032905;28;623;-66
2022/05/06 02:01:12;;;;;;;;;;;;;;;16.88;61.76;102299.28;1032967;28;655;-66
2022/05/06 02:02:02;;;;;;;;;;;;;;;16.90;61.80;102291.97;1031927;28;626;-66
2022/05/06 02:02:55;;;;;;;;;;;;;;;16.90;61.86;102299.19;1028213;28;722;-66
2022/05/06 02:05:28;;;;;;;;;;;;;;;16.89;61.27;102301.00;1034308;28;630;-64
2022/05/06 02:06:11;;;;;;;;;;;;;;;16.87;61.76;102296.69;1032839;28;666;-65
2022/05/06 02:07:02;;;;;;;;;;;;;;;16.87;61.34;102302.06;1032159;28;710;-64
2022/05/06 02:07:55;;;;;;;;;;;;;;;16.87;61.73;102299.38;1031429;28;702;-64
2022/05/06 02:08:46;;;;;;;;;;;;;;;16.87;61.99;102296.69;1031379;28;710;-65
2022/05/06 02:09:36;;;;;;;;;;;;;;;16.87;61.22;102296.69;1032451;28;718;-64
2022/05/06 02:10:27;;;;;;;;;;;;;;;16.87;61.68;102302.94;1032882;28;651;-65
2022/05/06 02:11:18;;;;;;;;;;;;;;;16.86;61.91;102301.22;1032870;28;681;-65
2022/05/06 02:12:09;;;;;;;;;;;;;;;16.86;61.92;102301.22;1033350;28;674;-64
2022/05/06 02:12:59;;;;;;;;;;;;;;;16.85;61.72;102299.47;1032747;28;1598;-65
2022/05/06 02:13:50;;;;;;;;;;;;;;;16.85;61.84;102302.19;1032942;28;607;-64
2022/05/06 02:14:40;;;;;;;;;;;;;;;16.85;62.00;102310.25;1036297;28;656;-65
2022/05/06 02:15:33;;;;;;;;;;;;;;;16.84;62.39;102308.53;1036470;28;615;-64
2022/05/06 02:16:24;;;;;;;;;;;;;;;16.84;61.92;102307.69;1033608;28;670;-64
2022/05/06 02:17:14;;;;;;;;;;;;;;;16.84;62.32;102307.69;1033982;28;1330;-62
2022/05/06 02:18:04;;;;;;;;;;;;;;;16.83;61.96;102306.84;1034682;28;673;-64
2022/05/06 02:18:55;;;;;;;;;;;;;;;16.82;62.03;102305.09;1034188;28;665;-63
2022/05/06 02:19:45;;;;;;;;;;;;;;;16.82;61.83;102304.25;1036906;28;788;-63
2022/05/06 02:20:36;;;;;;;;;;;;;;;16.84;62.15;102307.69;1037444;28;654;-63
2022/05/06 02:21:27;;;;;;;;;;;;;;;16.83;61.74;102301.44;1032636;28;781;-63
2022/05/06 02:22:17;;;;;;;;;;;;;;;16.82;61.83;102302.41;1034249;28;686;-63
2022/05/06 02:23:08;;;;;;;;;;;;;;;16.83;61.44;102303.28;1033705;28;646;-65
2022/05/06 02:23:59;;;;;;;;;;;;;;;16.83;61.85;102300.59;1033019;28;642;-64
2022/05/06 02:24:49;;;;;;;;;;;;;;;16.81;61.76;102297.13;1034164;28;690;-66
2022/05/06 02:25:40;;;;;;;;;;;;;;;16.81;61.99;102303.38;1034317;28;693;-66
2022/05/06 02:26:31;;;;;;;;;;;;;;;16.80;62.16;102306.16;1033642;28;781;-65
2022/05/06 02:27:21;;;;;;;;;;;;;;;16.80;61.87;102304.34;1034091;28;1906;-66
2022/05/06 02:28:14;;;;;;;;;;;;;;;16.80;61.58;102298.97;1033618;28;689;-65
2022/05/06 02:29:05;;;;;;;;;;;;;;;16.80;61.70;102304.34;1033605;28;708;-62
2022/05/06 02:33:24;;;;;;;;;;;;;;;16.79;61.75;102304.44;1032820;28;1657;-64
2022/05/06 02:34:18;;;;;;;;;;;;;;;16.78;61.46;102302.72;1032948;28;1295;-63
2022/05/06 02:35:08;;;;;;;;;;;;;;;16.78;61.99;102308.97;1032640;28;1088;-62
2022/05/06 02:35:59;;;;;;;;;;;;;;;16.77;61.89;102304.53;1033863;28;1322;-63
2022/05/06 02:36:49;;;;;;;;;;;;;;;16.76;62.06;102305.50;1033590;28;1092;-63
2022/05/06 02:37:40;;;;;;;;;;;;;;;16.75;61.90;102301.09;1033081;28;1104;-64
2022/05/06 02:38:31;;;;;;;;;;;;;;;16.75;61.70;102306.47;1034309;28;1250;-63
2022/05/06 02:39:21;;;;;;;;;;;;;;;16.75;61.57;102295.72;1033416;28;1163;-64
2022/05/06 02:40:11;;;;;;;;;;;;;;;16.76;61.75;102294.75;1034818;28;1269;-63
2022/05/06 02:41:02;;;;;;;;;;;;;;;16.74;61.38;102296.66;1033784;28;1151;-63
2022/05/06 02:41:52;;;;;;;;;;;;;;;16.75;62.12;102297.53;1038712;28;1013;-64
2022/05/06 02:42:43;;;;;;;;;;;;;;;16.76;61.45;102299.25;1038293;28;1140;-64
2022/05/06 02:43:33;;;;;;;;;;;;;;;16.75;61.63;102298.41;1032403;28;1049;-63
2022/05/06 02:44:25;;;;;;;;;;;;;;;16.76;61.61;102299.25;1030877;28;1068;-63
2022/05/06 02:45:15;;;;;;;;;;;;;;;16.75;62.06;102297.53;1032402;28;1081;-63
2022/05/06 02:46:06;;;;;;;;;;;;;;;16.74;61.59;102293.97;1033643;28;1143;-63
2022/05/06 02:46:56;;;;;;;;;;;;;;;16.76;61.36;102300.13;1033009;28;1060;-64
2022/05/06 02:47:47;;;;;;;;;;;;;;;16.74;61.43;102304.75;1032874;28;1112;-64
2022/05/06 02:48:37;;;;;;;;;;;;;;;16.76;61.29;102301.94;1032526;28;1092;-64
2022/05/06 02:49:27;;;;;;;;;;;;;;;16.75;61.40;102302.91;1030162;28;1117;-64
2022/05/06 02:50:18;;;;;;;;;;;;;;;16.74;61.66;102299.38;1027660;28;1085;-64
2022/05/06 02:51:08;;;;;;;;;;;;;;;16.73;61.64;102300.31;1032756;28;1076;-65
2022/05/06 02:51:59;;;;;;;;;;;;;;;16.72;61.50;102298.59;1033384;28;1040;-64
2022/05/06 02:52:49;;;;;;;;;;;;;;;16.72;61.39;102303.97;1034124;28;1127;-64
2022/05/06 02:53:39;;;;;;;;;;;;;;;16.71;61.98;102302.25;1033186;28;1492;-66
2022/05/06 02:54:30;;;;;;;;;;;;;;;16.72;61.71;102303.97;1033821;28;1191;-66
2022/05/06 02:55:22;;;;;;;;;;;;;;;16.71;62.04;102294.19;1032793;28;1067;-66
2022/05/06 02:56:12;;;;;;;;;;;;;;;16.71;61.95;102296.00;1032805;28;1195;-66
2022/05/06 02:57:03;;;;;;;;;;;;;;;16.71;61.68;102293.31;1033093;28;1009;-66
2022/05/06 02:57:53;;;;;;;;;;;;;;;16.71;61.26;102296.88;1034476;28;1096;-67
2022/05/06 02:58:43;;;;;;;;;;;;;;;16.71;61.94;102293.31;1033405;28;1112;-66
2022/05/06 02:59:34;;;;;;;;;;;;;;;16.71;61.94;102291.50;1032775;28;1021;-64
2022/05/06 03:00:24;;;;;;;;;;;;;;;16.70;61.91;102295.16;1033340;28;1041;-63
2022/05/06 03:01:15;;;;;;;;;;;;;;;16.72;61.73;102305.81;1034711;28;1097;-62
2022/05/06 03:02:05;;;;;;;;;;;;;;;16.70;61.74;102297.84;1035932;28;1115;-62
2022/05/06 03:02:56;;;;;;;;;;;;;;;16.69;61.40;102298.81;1033524;28;1096;-62
2022/05/06 03:03:47;;;;;;;;;;;;;;;16.71;61.69;102309.47;1033748;28;1148;-62
2022/05/06 03:04:38;;;;;;;;;;;;;;;16.69;61.92;102304.19;1033236;28;1135;-63
2022/05/06 03:05:28;;;;;;;;;;;;;;;16.69;61.42;102309.56;1030155;28;1056;-63
2022/05/06 03:06:19;;;;;;;;;;;;;;;16.68;61.83;102313.22;1028376;28;1183;-62
2022/05/06 03:07:09;;;;;;;;;;;;;;;16.68;61.40;102310.53;1033627;28;1120;-62
2022/05/06 03:08:00;;;;;;;;;;;;;;;16.67;61.67;102308.81;1033435;28;1123;-62
2022/05/06 03:08:50;;;;;;;;;;;;;;;16.69;62.07;102312.25;1034029;28;1282;-62
2022/05/06 03:09:41;;;;;;;;;;;;;;;16.68;61.98;102313.22;1033316;28;1210;-62
2022/05/06 03:10:31;;;;;;;;;;;;;;;16.69;61.65;102308.69;1033868;28;1063;-62
2022/05/06 03:11:22;;;;;;;;;;;;;;;16.67;61.77;102315.06;1035498;28;1147;-62
2022/05/06 03:12:13;;;;;;;;;;;;;;;16.67;61.76;102308.81;1037200;28;694;-66
2022/05/06 03:13:03;;;;;;;;;;;;;;;16.66;61.60;102309.78;1033383;28;658;-66
2022/05/06 03:13:53;;;;;;;;;;;;;;;16.67;61.74;102314.19;1032877;28;1491;-66
2022/05/06 03:14:44;;;;;;;;;;;;;;;16.66;61.57;102309.78;1033370;28;694;-66
2022/05/06 03:15:35;;;;;;;;;;;;;;;16.64;61.34;102304.53;1032649;28;1092;-64
2022/05/06 03:16:27;;;;;;;;;;;;;;;16.64;61.56;102303.66;1034161;28;1170;-65
2022/05/06 03:17:17;;;;;;;;;;;;;;;16.64;61.40;102303.66;1033773;28;1187;-64
2022/05/06 03:18:08;;;;;;;;;;;;;;;16.64;61.93;102306.34;1033694;28;1159;-65
2022/05/06 03:19:00;;;;;;;;;;;;;;;16.64;62.13;102303.66;1032829;28;1024;-65
2022/05/06 03:19:50;;;;;;;;;;;;;;;16.63;61.82;102310.00;1031502;28;1116;-65
2022/05/06 03:20:43;;;;;;;;;;;;;;;16.64;61.75;102301.81;1033446;28;1096;-64
2022/05/06 03:21:34;;;;;;;;;;;;;;;16.64;61.90;102303.66;1033334;28;1135;-65
2022/05/06 03:22:24;;;;;;;;;;;;;;;16.63;61.76;102299.22;1033986;28;1174;-63
2022/05/06 03:23:15;;;;;;;;;;;;;;;16.62;61.58;102303.72;1033288;28;1060;-63
2022/05/06 03:24:05;;;;;;;;;;;;;;;16.63;61.71;102307.31;1033817;28;1107;-63
2022/05/06 03:24:56;;;;;;;;;;;;;;;16.62;61.91;102305.56;1033276;28;1032;-63
2022/05/06 03:25:46;;;;;;;;;;;;;;;16.63;61.56;102304.63;1033312;28;1115;-63
2022/05/06 03:26:36;;;;;;;;;;;;;;;16.62;61.74;102309.09;1033094;28;1227;-64
2022/05/06 03:28:36;;;;;;;;;;;;;;;16.61;61.36;102309.19;1027860;28;1101;-63
2022/05/06 03:29:26;;;;;;;;;;;;;;;16.62;61.68;102308.25;1032266;28;1117;-62
2022/05/06 03:30:17;;;;;;;;;;;;;;;16.60;61.83;102300.25;1032641;28;1004;-63
2022/05/06 03:31:07;;;;;;;;;;;;;;;16.59;62.01;102298.53;1033319;28;1365;-63
2022/05/06 03:31:58;;;;;;;;;;;;;;;16.59;62.09;102303.06;1032784;28;1096;-63
2022/05/06 03:32:48;;;;;;;;;;;;;;;16.59;61.42;102297.66;1033089;28;1203;-63
2022/05/06 03:33:40;;;;;;;;;;;;;;;16.59;61.59;102303.91;1035450;28;1053;-63
2022/05/06 03:34:30;;;;;;;;;;;;;;;16.58;61.63;102302.19;1036855;28;1330;-63
2022/05/06 03:35:21;;;;;;;;;;;;;;;16.59;61.71;102297.66;1032170;28;1132;-63
2022/05/06 03:36:11;;;;;;;;;;;;;;;16.59;61.63;102300.38;1033164;28;1585;-63
2022/05/06 03:37:02;;;;;;;;;;;;;;;16.59;61.52;102305.75;1033594;28;1096;-63
2022/05/06 03:37:53;;;;;;;;;;;;;;;16.57;61.51;102300.47;1032683;28;1194;-63
2022/05/06 03:38:43;;;;;;;;;;;;;;;16.57;61.84;102305.84;1033372;28;1105;-63
2022/05/06 03:39:39;;;;;;;;;;;;;;;16.58;61.52;102299.50;1036941;28;647;-63
2022/05/06 03:40:29;;;;;;;;;;;;;;;16.58;61.64;102304.03;1033122;28;1115;-63
2022/05/06 03:41:20;;;;;;;;;;;;;;;16.57;61.79;102310.38;1034089;28;1120;-64
2022/05/06 03:42:10;;;;;;;;;;;;;;;16.57;61.79;102299.59;1035199;28;859;-62
2022/05/06 03:43:01;;;;;;;;;;;;;;;16.56;61.46;102303.25;1032345;28;1218;-63
2022/05/06 03:43:51;;;;;;;;;;;;;;;16.56;61.68;102306.81;1033271;28;1143;-63
2022/05/06 03:44:42;;;;;;;;;;;;;;;16.55;61.53;102301.53;1029665;28;1117;-63
2022/05/06 03:45:32;;;;;;;;;;;;;;;16.55;61.77;102304.22;1030443;28;1145;-63
2022/05/06 03:46:23;;;;;;;;;;;;;;;16.53;61.36;102303.47;1037481;28;1081;-63
2022/05/06 03:47:13;;;;;;;;;;;;;;;16.56;61.66;102305.94;1037655;28;1185;-63
2022/05/06 03:48:04;;;;;;;;;;;;;;;16.55;61.48;102304.22;1030584;28;629;-63
2022/05/06 03:48:55;;;;;;;;;;;;;;;16.54;61.80;102297.97;1034736;28;1068;-62
2022/05/06 03:51:20;;;;;;;;;;;;;;;16.55;61.39;102304.22;1034687;28;1242;-63
2022/05/06 03:52:05;;;;;;;;;;;;;;;16.54;61.71;102297.09;1032199;28;1296;-64
2022/05/06 03:52:55;;;;;;;;;;;;;;;16.52;61.97;102291.81;1038446;28;591;-62
2022/05/06 03:53:47;;;;;;;;;;;;;;;16.51;61.59;102292.78;1035119;28;684;-61
2022/05/06 03:54:38;;;;;;;;;;;;;;;16.50;61.92;102288.38;1032265;28;689;-65
2022/05/06 03:55:28;;;;;;;;;;;;;;;16.50;61.67;102293.75;1033498;28;1228;-65
2022/05/06 03:56:19;;;;;;;;;;;;;;;16.51;61.51;102291.94;1037427;28;1177;-64
2022/05/06 03:57:09;;;;;;;;;;;;;;;16.52;61.53;102299.03;1031753;28;1188;-64
2022/05/06 03:58:00;;;;;;;;;;;;;;;16.50;61.59;102292.88;1028635;28;1203;-65
2022/05/06 03:58:50;;;;;;;;;;;;;;;16.53;61.77;102295.38;1033903;28;1151;-65
2022/05/06 03:59:41;;;;;;;;;;;;;;;16.50;61.28;102299.13;1035633;28;1243;-67
2022/05/06 04:00:31;;;;;;;;;;;;;;;16.51;61.79;102291.94;1035185;28;1183;-66
2022/05/06 04:01:22;;;;;;;;;;;;;;;16.52;61.44;102301.72;1033317;28;1072;-66
2022/05/06 04:02:12;;;;;;;;;;;;;;;16.51;61.01;102292.78;1033153;28;1080;-66
2022/05/06 04:03:02;;;;;;;;;;;;;;;16.50;61.50;102299.13;1032567;28;1073;-66
2022/05/06 04:03:54;;;;;;;;;;;;;;;16.51;61.45;102292.78;1033843;28;638;-66
2022/05/06 04:04:45;;;;;;;;;;;;;;;16.51;61.47;102291.94;1033280;28;722;-66
2022/05/06 04:05:35;;;;;;;;;;;;;;;16.49;61.74;102292.03;1033586;28;693;-66
2022/05/06 04:06:26;;;;;;;;;;;;;;;16.49;61.79;102293.84;1033644;28;678;-66
2022/05/06 04:07:16;;;;;;;;;;;;;;;16.48;61.52;102294.84;1030030;28;650;-66
2022/05/06 04:08:07;;;;;;;;;;;;;;;16.46;61.87;102294.94;1029433;28;731;-66
2022/05/06 04:08:57;;;;;;;;;;;;;;;16.49;61.22;102296.53;1033163;28;666;-66
2022/05/06 04:09:47;;;;;;;;;;;;;;;16.49;61.27;102293.84;1033254;28;724;-66
2022/05/06 04:10:38;;;;;;;;;;;;;;;16.49;61.35;102297.41;1033746;28;643;-67
2022/05/06 04:11:28;;;;;;;;;;;;;;;16.50;61.28;102300.97;1033161;28;724;-65
2022/05/06 04:12:21;;;;;;;;;;;;;;;16.49;61.38;102293.84;1033596;28;1649;-65
2022/05/06 04:13:12;;;;;;;;;;;;;;;16.49;61.09;102299.25;1033223;28;698;-65
2022/05/06 04:14:03;;;;;;;;;;;;;;;16.49;61.49;102296.53;1033199;28;670;-65
2022/05/06 04:14:53;;;;;;;;;;;;;;;16.50;61.52;102303.66;1032628;28;698;-64
2022/05/06 04:15:43;;;;;;;;;;;;;;;16.50;61.32;102298.28;1036488;28;729;-65
2022/05/06 04:16:34;;;;;;;;;;;;;;;16.48;61.39;102298.38;1036338;28;631;-66
2022/05/06 04:17:24;;;;;;;;;;;;;;;16.47;61.48;102295.81;1032074;28;1199;-65
2022/05/06 04:18:15;;;;;;;;;;;;;;;16.49;61.60;102304.63;1033189;28;646;-65
2022/05/06 04:19:05;;;;;;;;;;;;;;;16.48;61.40;102302.91;1032449;28;737;-65
2022/05/06 04:23:30;;;;;;;;;;;;;;;16.46;61.55;102294.09;1032688;28;702;-65
2022/05/06 04:24:20;;;;;;;;;;;;;;;16.47;61.45;102298.50;1032657;28;709;-65
2022/05/06 04:25:11;;;;;;;;;;;;;;;16.48;61.61;102301.06;1033811;28;636;-65
2022/05/06 04:26:02;;;;;;;;;;;;;;;16.47;61.19;102301.19;1036223;28;675;-66
2022/05/06 04:26:52;;;;;;;;;;;;;;;16.45;61.21;102303.13;1036977;28;729;-65
2022/05/06 04:27:43;;;;;;;;;;;;;;;16.45;61.42;102298.59;1033884;28;1962;-65
2022/05/06 04:28:33;;;;;;;;;;;;;;;16.44;61.39;102302.25;1033077;28;615;-66
2022/05/06 04:29:24;;;;;;;;;;;;;;;16.45;61.76;102303.13;1033476;28;686;-65
2022/05/06 04:30:14;;;;;;;;;;;;;;;16.45;61.55;102297.75;1033757;28;733;-65
2022/05/06 04:31:05;;;;;;;;;;;;;;;16.45;61.57;102311.19;1033275;28;639;-65
2022/05/06 04:31:55;;;;;;;;;;;;;;;16.44;61.48;102304.09;1033005;28;694;-65
2022/05/06 04:32:46;;;;;;;;;;;;;;;16.44;61.58;102314.84;1033442;28;1526;-65
2022/05/06 04:33:36;;;;;;;;;;;;;;;16.45;61.43;102311.19;1032840;28;650;-65
2022/05/06 04:34:27;;;;;;;;;;;;;;;16.44;61.69;102314.84;1032446;28;624;-65
2022/05/06 04:35:18;;;;;;;;;;;;;;;16.45;61.63;102313.88;1033228;28;647;-65
2022/05/06 04:36:09;;;;;;;;;;;;;;;16.44;61.42;102310.34;1032498;28;678;-65
2022/05/06 04:37:00;;;;;;;;;;;;;;;16.44;61.46;102323.78;1033613;28;647;-65